createdAt,value
2023-01-03T00:03:29.000Z,4.8
2023-01-03T00:06:20.000Z,1.8
2023-01-03T00:09:52.000Z,2.2
2023-01-03T00:13:25.000Z,2
2023-01-03T00:16:57.000Z,1.8
2023-01-03T00:20:30.000Z,1.7
2023-01-03T00:24:03.000Z,1.7
2023-01-03T00:27:36.000Z,1.7
2023-01-03T00:31:08.000Z,1.3
2023-01-03T00:34:41.000Z,1.4
2023-01-03T00:38:14.000Z,1.6
2023-01-03T00:41:46.000Z,1.3
2023-01-03T00:44:38.000Z,1.5
2023-01-03T00:48:10.000Z,1.4
2023-01-03T00:51:43.000Z,1.8
2023-01-03T00:55:15.000Z,1.7
2023-01-03T00:58:48.000Z,1.8
2023-01-03T01:02:21.000Z,1.8
2023-01-03T01:05:54.000Z,1.7
2023-01-03T01:09:27.000Z,1.6
2023-01-03T01:12:59.000Z,1.4
2023-01-03T01:16:32.000Z,1.5
2023-01-03T01:20:05.000Z,1.8
2023-01-03T01:22:56.000Z,1.8
2023-01-03T01:26:28.000Z,1.7
2023-01-03T01:30:01.000Z,2.1
2023-01-03T01:33:34.000Z,1.9
2023-01-03T01:37:07.000Z,2
2023-01-03T01:40:39.000Z,1.8
2023-01-03T01:44:18.000Z,2
2023-01-03T01:47:50.000Z,1.9
2023-01-03T01:51:23.000Z,2
2023-01-03T01:54:56.000Z,1.7
2023-01-03T01:58:28.000Z,2
2023-01-03T02:01:20.000Z,2
2023-01-03T02:04:53.000Z,2.1
2023-01-03T02:08:25.000Z,1.7
2023-01-03T02:11:58.000Z,1.7
2023-01-03T02:15:30.000Z,1.9
2023-01-03T02:19:03.000Z,2
2023-01-03T02:22:36.000Z,1.8
2023-01-03T02:26:08.000Z,1.8
2023-01-03T02:29:41.000Z,1.7
2023-01-03T02:33:14.000Z,1.3
2023-01-03T02:36:47.000Z,1.7
2023-01-03T02:39:38.000Z,1.5
2023-01-03T02:43:10.000Z,1.8
2023-01-03T02:46:43.000Z,1.5
2023-01-03T02:50:16.000Z,1.4
2023-01-03T02:53:48.000Z,1.5
2023-01-03T02:57:21.000Z,1.6
2023-01-03T03:00:54.000Z,1.5
2023-01-03T03:04:27.000Z,1.2
2023-01-03T03:07:59.000Z,1.4
2023-01-03T03:11:32.000Z,1.5
2023-01-03T03:15:04.000Z,1.5
2023-01-03T03:17:56.000Z,1.9
2023-01-03T03:21:28.000Z,1.7
2023-01-03T03:25:01.000Z,1.4
2023-01-03T03:28:34.000Z,1.5
2023-01-03T03:32:06.000Z,1.3
2023-01-03T03:35:39.000Z,1.1
2023-01-03T03:39:11.000Z,1.2
2023-01-03T03:42:44.000Z,1.4
2023-01-03T03:46:17.000Z,1.4
2023-01-03T03:49:50.000Z,1.7
2023-01-03T03:53:22.000Z,1.4
2023-01-03T03:56:13.000Z,1.6
2023-01-03T03:59:46.000Z,1.7
2023-01-03T04:03:19.000Z,1.4
2023-01-03T04:06:52.000Z,1.4
2023-01-03T04:10:24.000Z,1.5
2023-01-03T04:14:03.000Z,1.6
2023-01-03T04:17:35.000Z,2.2
2023-01-03T04:21:08.000Z,1.7
2023-01-03T04:24:46.000Z,1.6
2023-01-03T04:28:18.000Z,2.1
2023-01-03T04:31:51.000Z,2.3
2023-01-03T04:34:42.000Z,2.6
2023-01-03T04:38:15.000Z,1.7
2023-01-03T04:41:48.000Z,2.1
2023-01-03T04:45:21.000Z,2.6
2023-01-03T04:48:53.000Z,2.6
2023-01-03T04:52:26.000Z,2.3
2023-01-03T04:55:58.000Z,2.3
2023-01-03T04:59:31.000Z,2.4
2023-01-03T05:03:04.000Z,2
2023-01-03T05:06:37.000Z,2.4
2023-01-03T05:10:09.000Z,2.3
2023-01-03T05:13:01.000Z,2.3
2023-01-03T05:16:33.000Z,2.4
2023-01-03T05:20:06.000Z,2.2
2023-01-03T05:23:39.000Z,2.6
2023-01-03T05:27:11.000Z,2.2
2023-01-03T05:30:44.000Z,2.1
2023-01-03T05:34:17.000Z,2.3
2023-01-03T05:37:49.000Z,2.1
2023-01-03T05:41:22.000Z,2
2023-01-03T05:44:55.000Z,2.7
2023-01-03T05:48:28.000Z,2.4
2023-01-03T05:51:19.000Z,2.7
2023-01-03T05:54:52.000Z,3
2023-01-03T05:58:24.000Z,3.4
2023-01-03T06:01:57.000Z,3.9
2023-01-03T06:05:29.000Z,3.8
2023-01-03T06:09:02.000Z,4.1
2023-01-03T06:12:35.000Z,4.4
2023-01-03T06:16:08.000Z,3.8
2023-01-03T06:19:46.000Z,4.4
2023-01-03T06:23:19.000Z,4
2023-01-03T06:26:51.000Z,3.7
2023-01-03T06:29:42.000Z,3.5
2023-01-03T06:33:15.000Z,3.4
2023-01-03T06:36:48.000Z,4
2023-01-03T06:40:20.000Z,3.4
2023-01-03T06:44:02.000Z,3.5
2023-01-03T06:47:34.000Z,3.6
2023-01-03T06:51:07.000Z,3.6
2023-01-03T06:54:40.000Z,3.5
2023-01-03T06:58:13.000Z,4.1
2023-01-03T07:01:45.000Z,4.7
2023-01-03T07:05:18.000Z,4.6
2023-01-03T07:08:09.000Z,5.2
2023-01-03T07:11:42.000Z,5.9
2023-01-03T07:15:14.000Z,5.8
2023-01-03T07:18:47.000Z,7.3
2023-01-03T07:22:20.000Z,16
2023-01-03T07:25:53.000Z,6.1
2023-01-03T07:29:26.000Z,6
2023-01-03T07:32:58.000Z,11
2023-01-03T07:36:31.000Z,7.4
2023-01-03T07:40:04.000Z,6.5
2023-01-03T07:43:36.000Z,7.7
2023-01-03T07:46:27.000Z,8.7
2023-01-03T07:50:00.000Z,9.3
2023-01-03T07:53:33.000Z,11.6
2023-01-03T07:57:06.000Z,13.8
2023-01-03T08:00:38.000Z,14.3
2023-01-03T08:04:11.000Z,14.3
2023-01-03T08:07:44.000Z,14.9
2023-01-03T08:11:16.000Z,15
2023-01-03T08:14:49.000Z,14.8
2023-01-03T08:18:22.000Z,15.6
2023-01-03T08:21:54.000Z,15.7
2023-01-03T08:24:46.000Z,15.7
2023-01-03T08:28:18.000Z,16.5
2023-01-03T08:31:51.000Z,18.1
2023-01-03T08:35:24.000Z,21.5
2023-01-03T08:38:56.000Z,18.2
2023-01-03T08:42:35.000Z,17.6
2023-01-03T08:46:08.000Z,17.2
2023-01-03T08:49:40.000Z,16.2
2023-01-03T08:53:13.000Z,18.7
2023-01-03T08:56:45.000Z,18.1
2023-01-03T09:00:18.000Z,17.6
2023-01-03T09:03:09.000Z,18
2023-01-03T09:06:42.000Z,15.4
2023-01-03T09:10:15.000Z,16.2
2023-01-03T09:13:48.000Z,14.9
2023-01-03T09:17:21.000Z,15.9
2023-01-03T09:20:53.000Z,15.6
2023-01-03T09:24:26.000Z,13.6
2023-01-03T09:27:58.000Z,15
2023-01-03T09:31:31.000Z,13
2023-01-03T09:35:05.000Z,12.5
2023-01-03T09:38:38.000Z,12.6
2023-01-03T09:41:29.000Z,11.8
2023-01-03T09:45:02.000Z,15.3
2023-01-03T09:48:34.000Z,13.2
2023-01-03T09:52:30.000Z,11.9
2023-01-03T09:56:03.000Z,13.8
2023-01-03T09:59:35.000Z,11.9
2023-01-03T10:03:08.000Z,13.6
2023-01-03T10:06:41.000Z,13
2023-01-03T10:10:14.000Z,11.6
2023-01-03T10:13:46.000Z,12.3
2023-01-03T10:17:19.000Z,11
2023-01-03T10:20:10.000Z,10.2
2023-01-03T10:23:43.000Z,10.2
2023-01-03T10:27:16.000Z,8.3
2023-01-03T10:30:48.000Z,7.6
2023-01-03T10:34:30.000Z,7.7
2023-01-03T10:38:03.000Z,6.5
2023-01-03T10:41:35.000Z,6.5
2023-01-03T10:45:08.000Z,6.4
2023-01-03T10:52:43.000Z,5.6
2023-01-03T10:56:16.000Z,5.5
2023-01-03T10:59:08.000Z,5.9
2023-01-03T11:02:40.000Z,6
2023-01-03T11:06:13.000Z,7.2
2023-01-03T11:09:46.000Z,6.3
2023-01-03T11:13:19.000Z,6.2
2023-01-03T11:16:52.000Z,6.2
2023-01-03T11:20:24.000Z,5.8
2023-01-03T11:23:57.000Z,5.6
2023-01-03T11:27:30.000Z,5.7
2023-01-03T11:31:03.000Z,6
2023-01-03T11:34:35.000Z,5.4
2023-01-03T11:38:06.000Z,5.6
2023-01-03T11:41:38.000Z,4.7
2023-01-03T11:45:11.000Z,4.8
2023-01-03T11:48:44.000Z,5
2023-01-03T11:52:16.000Z,4.6
2023-01-03T11:55:49.000Z,4.2
2023-01-03T11:59:21.000Z,4.2
2023-01-03T12:02:54.000Z,4.6
2023-01-03T12:06:27.000Z,4.3
2023-01-03T12:10:00.000Z,4.1
2023-01-03T12:13:33.000Z,4.2
2023-01-03T12:16:24.000Z,4.5
2023-01-03T12:19:57.000Z,4.2
2023-01-03T12:23:29.000Z,4.3
2023-01-03T12:27:04.000Z,3.7
2023-01-03T12:30:37.000Z,3.7
2023-01-03T12:34:10.000Z,4
2023-01-03T12:37:42.000Z,4.1
2023-01-03T12:41:15.000Z,4.7
2023-01-03T12:44:48.000Z,4.4
2023-01-03T12:48:20.000Z,4.5
2023-01-03T12:51:53.000Z,4.9
2023-01-03T12:54:44.000Z,5.4
2023-01-03T12:58:17.000Z,5.8
2023-01-03T13:01:49.000Z,5
2023-01-03T13:05:22.000Z,5.2
2023-01-03T13:08:55.000Z,5.2
2023-01-03T13:12:28.000Z,5.4
2023-01-03T13:16:00.000Z,4.7
2023-01-03T13:19:33.000Z,5.2
2023-01-03T13:23:06.000Z,6.7
2023-01-03T13:26:38.000Z,5.5
2023-01-03T13:30:16.000Z,5.7
2023-01-03T13:33:07.000Z,6.2
2023-01-03T13:36:40.000Z,6.1
2023-01-03T13:40:19.000Z,5.9
2023-01-03T13:44:32.000Z,6.3
2023-01-03T13:48:05.000Z,6.5
2023-01-03T13:51:38.000Z,6.2
2023-01-03T13:55:10.000Z,6.7
2023-01-03T13:58:43.000Z,7.3
2023-01-03T14:02:16.000Z,6.7
2023-01-03T14:05:49.000Z,6.8
2023-01-03T14:09:22.000Z,8.4
2023-01-03T14:12:13.000Z,7.5
2023-01-03T14:15:45.000Z,7.3
2023-01-03T14:19:18.000Z,7.7
2023-01-03T14:22:51.000Z,6.9
2023-01-03T14:26:23.000Z,8.2
2023-01-03T14:29:56.000Z,8.9
2023-01-03T14:33:29.000Z,8.6
2023-01-03T14:37:01.000Z,7.8
2023-01-03T14:40:34.000Z,7
2023-01-03T14:44:07.000Z,7.1
2023-01-03T14:47:39.000Z,6.6
2023-01-03T14:50:30.000Z,6.4
2023-01-03T14:54:03.000Z,6.1
2023-01-03T14:57:36.000Z,5.8
2023-01-03T15:01:08.000Z,5.4
2023-01-03T15:04:41.000Z,5.2
2023-01-03T15:08:14.000Z,5.5
2023-01-03T15:11:47.000Z,5.5
2023-01-03T15:15:19.000Z,5.5
2023-01-03T15:18:52.000Z,5.7
2023-01-03T15:22:25.000Z,5.4
2023-01-03T15:25:58.000Z,5.4
2023-01-03T15:28:48.000Z,5
2023-01-03T15:32:21.000Z,5.5
2023-01-03T15:35:54.000Z,5.3
2023-01-03T15:39:26.000Z,5.6
2023-01-03T15:42:59.000Z,5.2
2023-01-03T15:46:32.000Z,7.2
2023-01-03T15:52:19.000Z,5.8
2023-01-03T15:55:51.000Z,7.2
2023-01-03T15:59:24.000Z,6.1
2023-01-03T16:02:57.000Z,7.1
2023-01-03T16:06:30.000Z,7.4
2023-01-03T16:09:15.000Z,7.4
2023-01-03T16:12:48.000Z,7
2023-01-03T16:16:20.000Z,7.7
2023-01-03T16:19:53.000Z,7.8
2023-01-03T16:23:26.000Z,7.2
2023-01-03T16:26:58.000Z,8
2023-01-03T16:30:31.000Z,7.3
2023-01-03T16:34:04.000Z,7.3
2023-01-03T16:37:36.000Z,7.1
2023-01-03T16:41:09.000Z,7.7
2023-01-03T16:44:42.000Z,7.7
2023-01-03T16:47:33.000Z,7.9
2023-01-03T16:51:06.000Z,9.7
2023-01-03T16:54:38.000Z,7.5
2023-01-03T16:58:11.000Z,6.8
2023-01-03T17:01:44.000Z,7.7
2023-01-03T17:05:17.000Z,8.5
2023-01-03T17:08:50.000Z,8.4
2023-01-03T17:12:22.000Z,7.8
2023-01-03T17:15:55.000Z,7.7
2023-01-03T17:19:27.000Z,8
2023-01-03T17:23:30.000Z,7.7
2023-01-03T17:26:21.000Z,7.3
2023-01-03T17:29:54.000Z,7.7
2023-01-03T17:33:27.000Z,7.1
2023-01-03T17:36:59.000Z,7.1
2023-01-03T17:40:32.000Z,7.2
2023-01-03T17:44:04.000Z,6.9
2023-01-03T17:47:37.000Z,7.5
2023-01-03T17:51:10.000Z,8.1
2023-01-03T17:54:45.000Z,7.2
2023-01-03T17:58:18.000Z,7.7
2023-01-03T18:01:50.000Z,7.2
2023-01-03T18:04:42.000Z,6.6
2023-01-03T18:08:42.000Z,7.1
2023-01-03T18:12:15.000Z,6.5
2023-01-03T18:15:47.000Z,6.7
2023-01-03T18:19:20.000Z,7.1
2023-01-03T18:22:53.000Z,7.9
2023-01-03T18:26:25.000Z,8
2023-01-03T18:29:58.000Z,8
2023-01-03T18:33:31.000Z,10.4
2023-01-03T18:37:04.000Z,8.7
2023-01-03T18:40:36.000Z,7.9
2023-01-03T18:43:27.000Z,7.9
2023-01-03T18:47:00.000Z,7.5
2023-01-03T18:50:33.000Z,7.2
2023-01-03T18:54:05.000Z,7.3
2023-01-03T18:57:38.000Z,6.7
2023-01-03T19:01:11.000Z,7.7
2023-01-03T19:04:44.000Z,7.9
2023-01-03T19:08:17.000Z,7.8
2023-01-03T19:15:22.000Z,9.4
2023-01-03T19:18:55.000Z,7.7
2023-01-03T19:21:46.000Z,9.6
2023-01-03T19:25:19.000Z,11.2
2023-01-03T19:28:51.000Z,11.6
2023-01-03T19:32:24.000Z,8.6
2023-01-03T19:35:57.000Z,8.5
2023-01-03T19:39:29.000Z,10.6
2023-01-03T19:43:03.000Z,9.1
2023-01-03T19:46:35.000Z,10
2023-01-03T19:50:08.000Z,10.2
2023-01-03T19:53:40.000Z,8.3
2023-01-03T19:57:13.000Z,8.8
2023-01-03T20:00:04.000Z,8.5
2023-01-03T20:03:42.000Z,7.9
2023-01-03T20:07:15.000Z,7.8
2023-01-03T20:10:48.000Z,8
2023-01-03T20:14:20.000Z,8.5
2023-01-03T20:17:53.000Z,8.9
2023-01-03T20:21:26.000Z,8.7
2023-01-03T20:25:05.000Z,7.2
2023-01-03T20:28:38.000Z,7.2
2023-01-03T20:32:10.000Z,8.2
2023-01-03T20:35:43.000Z,9.1
2023-01-03T20:39:03.000Z,7.9
2023-01-03T20:42:36.000Z,9.1
2023-01-03T20:46:08.000Z,8.6
2023-01-03T20:49:41.000Z,10.3
2023-01-03T20:53:14.000Z,11.8
2023-01-03T20:56:46.000Z,9.9
2023-01-03T21:00:19.000Z,10
2023-01-03T21:03:52.000Z,12.8
2023-01-03T21:07:24.000Z,10.9
2023-01-03T21:10:57.000Z,11.4
2023-01-03T21:14:36.000Z,14.3
2023-01-03T21:17:27.000Z,13.2
2023-01-03T21:20:59.000Z,11.8
2023-01-03T21:24:32.000Z,10.3
2023-01-03T21:28:10.000Z,12
2023-01-03T21:31:43.000Z,12.9
2023-01-03T21:35:16.000Z,14.4
2023-01-03T21:38:49.000Z,13.5
2023-01-03T21:42:21.000Z,11.7
2023-01-03T21:45:54.000Z,12.8
2023-01-03T21:49:26.000Z,12.4
2023-01-03T21:52:59.000Z,13.3
2023-01-03T21:55:51.000Z,11.8
2023-01-03T21:59:23.000Z,11.9
2023-01-03T22:02:56.000Z,11.9
2023-01-03T22:06:29.000Z,11.3
2023-01-03T22:10:02.000Z,11.2
2023-01-03T22:13:34.000Z,11
2023-01-03T22:17:07.000Z,10.5
2023-01-03T22:20:40.000Z,9.7
2023-01-03T22:24:12.000Z,9.7
2023-01-03T22:27:45.000Z,10.8
2023-01-03T22:31:17.000Z,11.2
2023-01-03T22:34:09.000Z,10.4
2023-01-03T22:37:41.000Z,10
2023-01-03T22:41:14.000Z,11.1
2023-01-03T22:44:46.000Z,9.9
2023-01-03T22:48:19.000Z,9.1
2023-01-03T22:51:52.000Z,9.2
2023-01-03T22:55:25.000Z,8.4
2023-01-03T22:58:57.000Z,8.7
2023-01-03T23:02:30.000Z,8.1
2023-01-03T23:06:07.000Z,7.9
2023-01-03T23:09:40.000Z,7.6
2023-01-03T23:12:31.000Z,7.2
2023-01-03T23:16:03.000Z,7.2
2023-01-03T23:19:36.000Z,7.3
2023-01-03T23:23:09.000Z,6.6
2023-01-03T23:26:41.000Z,6.5
2023-01-03T23:30:14.000Z,6.7
2023-01-03T23:33:47.000Z,6.6
2023-01-03T23:37:19.000Z,5.9
2023-01-03T23:40:52.000Z,6
2023-01-03T23:44:25.000Z,6.6
2023-01-03T23:47:58.000Z,5.9
2023-01-03T23:50:49.000Z,6
2023-01-03T23:54:21.000Z,5.3
2023-01-03T23:57:54.000Z,5.1
